EST,Max TemperatureF,Mean TemperatureF,Min TemperatureF,Max Dew PointF,MeanDew PointF,Min DewpointF,Max Humidity, Mean Humidity, Min Humidity, Max Sea Level PressureIn, Mean Sea Level PressureIn, Min Sea Level PressureIn, Max VisibilityMiles, Mean VisibilityMiles, Min VisibilityMiles, Max Wind SpeedMPH, Mean Wind SpeedMPH, Max Gust SpeedMPH,PrecipitationIn, CloudCover, Events, WindDirDegrees
2014-2-1,66,44,22,27,22,17,81,51,20,30.17,30.08,29.98,10,10,9,12,3,13,0.00,1,,321
2014-2-2,47,37,27,44,36,23,92,78,64,30.11,30.03,29.90,10,6,2,8,1,11,0.10,6,Rain,4
2014-2-3,46,40,33,42,36,29,92,81,70,30.22,30.01,29.78,10,6,2,20,5,26,1.17,8,Rain,355
2014-2-4,56,42,28,45,34,25,92,72,51,30.24,30.08,29.82,10,9,5,12,4,17,0.05,5,Rain,78
2014-2-5,56,43,29,47,38,19,93,76,59,30.22,29.90,29.72,10,8,2,29,12,36,0.18,8,Rain,262
2014-2-6,35,31,26,22,17,14,69,57,44,30.37,30.30,30.25,10,10,10,14,6,17,0.00,8,,294
2014-2-7,40,33,26,23,20,20,78,61,44,30.36,30.29,30.23,10,10,8,8,2,13,0.00,6,,231
2014-2-8,40,34,27,30,26,22,81,68,54,30.25,30.18,30.14,10,9,3,7,1,8,T,8,Snow,268
2014-2-9,45,40,34,34,32,29,82,74,65,30.15,30.08,29.99,10,9,7,22,6,28,0.02,8,Rain,255
2014-2-10,36,31,25,29,25,15,89,76,63,30.25,30.15,30.08,10,8,2,10,5,12,T,8,Snow,8
2014-2-11,43,33,23,16,12,2,74,46,18,30.30,30.25,30.21,10,10,10,8,3,11,0.00,3,,26
2014-2-12,35,30,24,25,19,11,88,62,35,30.25,30.06,29.85,10,4,0,15,6,20,0.49,7,Fog-Snow,59
2014-2-13,36,28,19,30,24,18,92,84,75,29.83,29.73,29.68,10,4,0,15,5,19,0.11,7,Fog-Snow,226
2014-2-14,46,31,15,31,23,11,92,71,49,29.86,29.76,29.61,10,9,3,16,3,21,T,4,Rain,253
2014-2-15,40,32,23,34,22,14,85,65,45,30.11,29.87,29.58,10,9,2,22,10,27,0.10,7,Rain-Snow,261
2014-2-16,50,38,25,28,24,18,81,64,46,30.18,30.08,30.03,10,7,2,17,4,20,0.01,5,Snow,265
2014-2-17,57,40,22,38,26,19,92,61,30,30.23,30.12,29.98,10,8,4,16,4,21,0.08,5,Rain,159
2014-2-18,58,45,31,41,27,11,83,49,15,30.24,30.11,29.97,10,10,10,18,4,24,0.00,3,,232
2014-2-19,69,54,38,53,40,29,93,64,34,30.04,29.94,29.86,10,7,2,24,5,32,0.41,7,Rain-Thunderstorm,251
2014-2-20,75,59,42,48,43,35,82,58,33,30.03,29.93,29.73,10,10,10,23,8,31,0.00,6,,191
2014-2-21,69,51,33,52,37,20,89,59,28,30.07,29.88,29.66,10,8,2,35,12,45,0.54,5,Rain-Thunderstorm,239
2014-2-22,61,45,29,28,21,9,85,49,12,30.19,30.09,30.01,10,10,10,12,1,16,0.00,1,,270
2014-2-23,66,47,28,31,25,22,78,49,20,30.07,29.98,29.89,10,10,10,17,5,22,0.00,3,,269
2014-2-24,51,40,29,34,21,8,72,45,18,30.18,30.11,30.01,10,10,10,17,7,22,T,3,Rain,340
2014-2-25,46,37,28,23,16,11,69,47,25,30.09,30.03,29.97,10,10,10,14,5,17,0.00,5,,289
2014-2-26,37,31,24,18,14,7,58,47,35,30.01,29.92,29.85,10,10,10,14,6,18,0.00,5,,320
2014-2-27,41,29,16,9,5,1,62,41,20,30.02,29.93,29.88,10,10,10,22,9,27,0.00,0,,246
2014-2-28,51,34,16,13,9,5,74,45,16,30.16,30.10,30.04,10,10,10,10,2,15,0.00,3,,108